createdAt,value
2023-05-24T00:00:43.015Z,96780.25
2023-05-24T00:01:46.820Z,96780.50
2023-05-24T00:03:09.317Z,96773.22
2023-05-24T00:04:12.282Z,96779.06
2023-05-24T00:05:16.966Z,96779.66
2023-05-24T00:06:21.315Z,96781.50
2023-05-24T00:07:25.500Z,96784.19
2023-05-24T00:08:28.462Z,96774.53
2023-05-24T00:09:50.196Z,96770.81
2023-05-24T00:10:52.824Z,96774.03
2023-05-24T00:11:56.230Z,96773.53
2023-05-24T00:13:10.482Z,96770.84
2023-05-24T00:14:13.805Z,96773.00
2023-05-24T00:15:34.833Z,96774.63
2023-05-24T00:16:41.083Z,96772.50
2023-05-24T00:17:44.333Z,96779.47
2023-05-24T00:18:48.570Z,96783.50
2023-05-24T00:19:52.547Z,96777.91
2023-05-24T00:20:57.298Z,96780.59
2023-05-24T00:22:01.256Z,96771.03
2023-05-24T00:23:22.899Z,96767.75
2023-05-24T00:24:26.226Z,96776.38
2023-05-24T00:25:29.694Z,96767.75
2023-05-24T00:26:50.655Z,96776.28
2023-05-24T00:28:12.379Z,96767.72
2023-05-24T00:29:14.842Z,96771.44
2023-05-24T00:30:18.905Z,96774.94
2023-05-24T00:31:21.479Z,96774.13
2023-05-24T00:32:24.885Z,96769.81
2023-05-24T00:33:28.316Z,96771.72
2023-05-24T00:34:31.586Z,96769.28
2023-05-24T00:35:34.513Z,96771.41
2023-05-24T00:36:38.310Z,96772.47
2023-05-24T00:37:45.451Z,96773.53
2023-05-24T00:38:48.081Z,96760.44
2023-05-24T00:39:51.451Z,96766.00
2023-05-24T00:40:56.433Z,96766.81
2023-05-24T00:41:59.871Z,96768.69
2023-05-24T00:43:02.238Z,96772.16
2023-05-24T00:44:05.570Z,96777.50
2023-05-24T00:45:08.777Z,96768.69
2023-05-24T00:46:19.459Z,96773.22
2023-05-24T00:47:23.188Z,96773.22
2023-05-24T00:48:28.868Z,96773.50
2023-05-24T00:49:31.627Z,96774.03
2023-05-24T00:50:35.041Z,96769.78
2023-05-24T00:51:38.583Z,96773.78
2023-05-24T00:52:44.585Z,96771.94
2023-05-24T00:53:49.385Z,96775.16
2023-05-24T00:54:52.950Z,96781.59
2023-05-24T00:55:55.758Z,96779.47
2023-05-24T00:57:00.139Z,96773.63
2023-05-24T00:58:02.777Z,96778.44
2023-05-24T00:59:06.493Z,96778.22
2023-05-24T01:00:11.385Z,96781.22
2023-05-24T01:01:18.319Z,96772.91
2023-05-24T01:02:21.692Z,96771.06
2023-05-24T01:03:25.275Z,96778.84
2023-05-24T01:04:28.149Z,96772.69
2023-05-24T01:05:32.038Z,96773.72
2023-05-24T01:06:44.981Z,96775.34
2023-05-24T01:08:00.789Z,96779.59
2023-05-24T01:09:20.999Z,96774.72
2023-05-24T01:10:35.158Z,96770.94
2023-05-24T01:11:50.390Z,96777.84
2023-05-24T01:12:59.893Z,96779.69
2023-05-24T01:14:15.027Z,96772.16
2023-05-24T01:15:25.429Z,96774.00
2023-05-24T01:16:36.541Z,96771.84
2023-05-24T01:17:48.573Z,96770.22
2023-05-24T01:18:56.216Z,96766.72
2023-05-24T01:20:02.364Z,96768.59
2023-05-24T01:21:17.368Z,96766.50
2023-05-24T01:22:38.962Z,96762.75
2023-05-24T01:23:51.434Z,96770.75
2023-05-24T01:25:03.762Z,96765.69
2023-05-24T01:26:22.240Z,96761.16
2023-05-24T01:27:27.977Z,96764.88
2023-05-24T01:28:33.568Z,96765.38
2023-05-24T01:29:36.725Z,96757.88
2023-05-24T01:30:41.752Z,96766.38
2023-05-24T01:31:44.510Z,96766.09
2023-05-24T01:32:48.257Z,96759.94
2023-05-24T01:33:51.627Z,96759.13
2023-05-24T01:34:54.900Z,96758.31
2023-05-24T01:35:57.352Z,96761.78
2023-05-24T01:37:00.758Z,96759.94
2023-05-24T01:38:03.137Z,96765.53
2023-05-24T01:39:07.007Z,96755.09
2023-05-24T01:40:10.561Z,96773.25
2023-05-24T01:41:24.819Z,96768.41
2023-05-24T01:42:45.151Z,96765.69
2023-05-24T01:43:57.457Z,96764.56
2023-05-24T01:45:09.275Z,96765.88
2023-05-24T01:46:20.146Z,96761.84
2023-05-24T01:47:31.279Z,96762.34
2023-05-24T01:48:43.164Z,96766.88
2023-05-24T01:49:51.049Z,96762.03
2023-05-24T01:50:59.073Z,96762.53
2023-05-24T01:52:06.481Z,96767.06
2023-05-24T01:53:14.592Z,96767.56
2023-05-24T01:54:21.176Z,96767.00
2023-05-24T01:55:25.281Z,96773.41
2023-05-24T01:56:29.572Z,96770.19
2023-05-24T01:57:36.383Z,96766.97
2023-05-24T01:58:41.733Z,96774.16
2023-05-24T01:59:46.664Z,96762.13
2023-05-24T02:00:50.095Z,96767.47
2023-05-24T02:01:53.496Z,96767.47
2023-05-24T02:04:01.504Z,96766.97
2023-05-24T02:05:04.397Z,96764.28
2023-05-24T02:06:08.347Z,96768.59
2023-05-24T02:07:10.812Z,96757.91
2023-05-24T02:08:14.243Z,96762.16
2023-05-24T02:09:16.778Z,96758.94
2023-05-24T02:10:20.840Z,96757.63
2023-05-24T02:11:23.219Z,96764.84
2023-05-24T02:12:26.514Z,96764.84
2023-05-24T02:13:30.216Z,96764.06
2023-05-24T02:14:33.489Z,96762.44
2023-05-24T02:15:36.916Z,96766.16
2023-05-24T02:16:42.857Z,96765.34
2023-05-24T02:17:46.142Z,96764.78
2023-05-24T02:18:50.633Z,96764.78
2023-05-24T02:19:53.321Z,96767.47
2023-05-24T02:20:57.296Z,96761.06
2023-05-24T02:21:59.860Z,96757.59
2023-05-24T02:23:03.272Z,96755.22
2023-05-24T02:24:06.901Z,96754.97
2023-05-24T02:25:10.626Z,96760.06
2023-05-24T02:26:14.492Z,96763.28
2023-05-24T02:27:17.902Z,96763.88
2023-05-24T02:28:20.336Z,96764.41
2023-05-24T02:29:25.508Z,96760.69
2023-05-24T02:30:28.285Z,96763.34
2023-05-24T02:31:32.605Z,96765.75
2023-05-24T02:32:35.150Z,96766.56
2023-05-24T02:33:48.492Z,96764.94
2023-05-24T02:34:51.366Z,96766.34
2023-05-24T02:35:55.283Z,96766.06
2023-05-24T02:36:57.701Z,96760.50
2023-05-24T02:38:01.649Z,96765.56
2023-05-24T02:39:04.368Z,96770.66
2023-05-24T02:40:08.727Z,96768.81
2023-05-24T02:41:18.004Z,96772.84
2023-05-24T02:42:21.412Z,96768.53
2023-05-24T02:43:24.416Z,96767.19
2023-05-24T02:44:29.109Z,96766.88
2023-05-24T02:45:31.782Z,96770.06
2023-05-24T02:46:36.111Z,96772.72
2023-05-24T02:47:38.579Z,96772.41
2023-05-24T02:48:42.373Z,96776.41
2023-05-24T02:49:44.862Z,96765.16
2023-05-24T02:50:48.226Z,96770.19
2023-05-24T02:51:52.295Z,96765.34
2023-05-24T02:52:55.608Z,96765.28
2023-05-24T02:53:58.002Z,96761.50
2023-05-24T02:55:01.344Z,96766.28
2023-05-24T02:56:03.849Z,96763.03
2023-05-24T02:57:07.662Z,96768.66
2023-05-24T02:58:10.228Z,96768.88
2023-05-24T02:59:13.661Z,96766.72
2023-05-24T03:00:26.998Z,96757.13
2023-05-24T03:01:39.323Z,96761.88
2023-05-24T03:02:46.866Z,96759.22
2023-05-24T03:04:00.410Z,96754.91
2023-05-24T03:05:08.293Z,96757.59
2023-05-24T03:06:15.911Z,96756.53
2023-05-24T03:07:24.825Z,96752.00
2023-05-24T03:08:31.236Z,96757.59
2023-05-24T03:09:39.424Z,96752.25
2023-05-24T03:10:49.961Z,96753.06
2023-05-24T03:11:57.548Z,96747.94
2023-05-24T03:13:04.091Z,96749.56
2023-05-24T03:14:06.918Z,96750.38
2023-05-24T03:15:11.550Z,96755.50
2023-05-24T03:16:17.900Z,96756.03
2023-05-24T03:17:21.454Z,96756.63
2023-05-24T03:18:23.916Z,96757.16
2023-05-24T03:19:27.300Z,96754.22
2023-05-24T03:20:29.664Z,96757.72
2023-05-24T03:21:33.332Z,96760.38
2023-05-24T03:22:36.113Z,96760.63
2023-05-24T03:23:39.418Z,96766.22
2023-05-24T03:24:41.847Z,96758.47
2023-05-24T03:25:45.744Z,96759.50
2023-05-24T03:26:48.107Z,96756.53
2023-05-24T03:27:51.414Z,96765.59
2023-05-24T03:28:54.566Z,96761.53
2023-05-24T03:29:58.406Z,96763.88
2023-05-24T03:31:01.057Z,96765.19
2023-05-24T03:32:06.005Z,96768.13
2023-05-24T03:33:08.511Z,96767.53
2023-05-24T03:34:11.907Z,96769.16
2023-05-24T03:35:14.949Z,96771.84
2023-05-24T03:36:18.305Z,96769.16
2023-05-24T03:37:20.654Z,96773.47
2023-05-24T03:38:24.120Z,96783.88
2023-05-24T03:39:26.463Z,96775.63
2023-05-24T03:40:33.104Z,96776.41
2023-05-24T03:41:35.510Z,96778.31
2023-05-24T03:42:39.239Z,96777.50
2023-05-24T03:43:41.745Z,96776.69
2023-05-24T03:44:45.124Z,96784.13
2023-05-24T03:45:48.224Z,96776.13
2023-05-24T03:46:51.592Z,96784.13
2023-05-24T03:47:55.495Z,96781.47
2023-05-24T03:48:58.965Z,96779.84
2023-05-24T03:50:01.387Z,96776.59
2023-05-24T03:51:05.977Z,96781.69
2023-05-24T03:52:08.307Z,96784.13
2023-05-24T03:53:11.586Z,96788.41
2023-05-24T03:54:13.944Z,96787.91
2023-05-24T03:55:17.296Z,96782.06
2023-05-24T03:56:19.743Z,96786.94
2023-05-24T03:57:23.171Z,96784.84
2023-05-24T03:58:26.531Z,96786.47
2023-05-24T03:59:30.905Z,96786.75
2023-05-24T04:00:33.291Z,96784.66
2023-05-24T04:01:37.738Z,96787.06
2023-05-24T04:02:40.244Z,96777.50
2023-05-24T04:03:46.080Z,96786.06
2023-05-24T04:04:48.590Z,96785.59
2023-05-24T04:05:52.238Z,96795.78
2023-05-24T04:06:56.309Z,96789.94
2023-05-24T04:07:59.662Z,96789.94
2023-05-24T04:09:02.738Z,96798.50
2023-05-24T04:10:07.756Z,96793.47
2023-05-24T04:11:11.260Z,96800.16
2023-05-24T04:12:14.611Z,96798.06
2023-05-24T04:13:17.029Z,96793.28
2023-05-24T04:14:20.647Z,96798.66
2023-05-24T04:15:24.011Z,96796.28
2023-05-24T04:16:27.670Z,96796.06
2023-05-24T04:17:35.189Z,96797.41
2023-05-24T04:18:38.714Z,96798.22
2023-05-24T04:19:42.570Z,96802.03
2023-05-24T04:20:46.039Z,96799.09
2023-05-24T04:21:48.533Z,96802.31
2023-05-24T04:22:52.436Z,96803.69
2023-05-24T04:23:55.970Z,96799.97
2023-05-24T04:24:59.515Z,96805.84
2023-05-24T04:26:01.994Z,96806.66
2023-05-24T04:27:05.538Z,96807.47
2023-05-24T04:28:09.140Z,96806.41
2023-05-24T04:29:13.048Z,96808.84
2023-05-24T04:30:16.209Z,96800.81
2023-05-24T04:31:20.339Z,96802.16
2023-05-24T04:32:23.679Z,96803.28
2023-05-24T04:33:28.098Z,96806.50
2023-05-24T04:34:33.828Z,96808.44
2023-05-24T04:35:40.829Z,96802.59
2023-05-24T04:36:43.407Z,96811.44
2023-05-24T04:37:50.862Z,96806.41
2023-05-24T04:38:53.842Z,96798.69
2023-05-24T04:39:57.518Z,96807.00
2023-05-24T04:41:01.952Z,96801.97
2023-05-24T04:42:05.317Z,96803.09
2023-05-24T04:43:10.780Z,96801.28
2023-05-24T04:44:13.845Z,96808.78
2023-05-24T04:45:18.050Z,96799.44
2023-05-24T04:46:20.446Z,96805.91
2023-05-24T04:47:23.936Z,96803.53
2023-05-24T04:48:26.546Z,96805.97
2023-05-24T04:49:29.901Z,96805.69
2023-05-24T04:50:35.361Z,96807.31
2023-05-24T04:51:40.170Z,96811.56
2023-05-24T04:52:43.545Z,96814.25
2023-05-24T04:53:45.952Z,96820.41
2023-05-24T04:54:51.836Z,96812.38
2023-05-24T04:55:54.440Z,96816.69
2023-05-24T04:56:57.801Z,96812.97
2023-05-24T04:58:00.254Z,96817.78
2023-05-24T04:59:04.226Z,96817.00
2023-05-24T05:00:08.258Z,96817.31
2023-05-24T05:01:15.354Z,96810.38
2023-05-24T05:02:19.196Z,96818.47
2023-05-24T05:03:22.579Z,96809.41
2023-05-24T05:04:25.136Z,96804.06
2023-05-24T05:05:28.558Z,96804.13
2023-05-24T05:06:31.812Z,96803.09
2023-05-24T05:07:36.539Z,96802.88
2023-05-24T05:08:39.003Z,96798.34
2023-05-24T05:09:42.298Z,96804.00
2023-05-24T05:10:44.798Z,96796.81
2023-05-24T05:11:48.548Z,96798.53
2023-05-24T05:12:51.842Z,96805.31
2023-05-24T05:13:55.219Z,96798.97
2023-05-24T05:14:58.496Z,96796.59
2023-05-24T05:16:01.942Z,96799.34
2023-05-24T05:17:04.734Z,96798.25
2023-05-24T05:18:08.694Z,96796.03
2023-05-24T05:19:11.118Z,96802.44
2023-05-24T05:20:14.466Z,96793.50
2023-05-24T05:21:17.498Z,96795.22
2023-05-24T05:22:20.867Z,96802.66
2023-05-24T05:23:25.208Z,96797.41
2023-05-24T05:24:28.939Z,96794.63
2023-05-24T05:25:31.272Z,96797.44
2023-05-24T05:26:35.563Z,96801.06
2023-05-24T05:27:37.993Z,96797.09
2023-05-24T05:28:41.514Z,96797.97
2023-05-24T05:29:44.144Z,96796.72
2023-05-24T05:30:47.532Z,96800.31
2023-05-24T05:31:49.969Z,96795.81
2023-05-24T05:32:53.419Z,96802.53
2023-05-24T05:33:56.618Z,96806.84
2023-05-24T05:34:59.982Z,96803.63
2023-05-24T05:36:02.394Z,96802.63
2023-05-24T05:37:06.029Z,96806.38
2023-05-24T05:38:08.455Z,96795.03
2023-05-24T05:39:13.205Z,96797.19
2023-05-24T05:40:15.838Z,96794.75
2023-05-24T05:41:19.266Z,96795.56
2023-05-24T05:42:22.737Z,96798.56
2023-05-24T05:43:25.370Z,96800.97
2023-05-24T05:44:29.267Z,96801.56
2023-05-24T05:45:32.534Z,96794.06
2023-05-24T05:46:35.024Z,96799.97
2023-05-24T05:47:38.420Z,96799.63
2023-05-24T05:48:40.983Z,96799.59
2023-05-24T05:49:44.313Z,96802.56
2023-05-24T05:50:46.728Z,96802.13
2023-05-24T05:51:50.140Z,96811.16
2023-05-24T05:52:52.562Z,96812.03
2023-05-24T05:53:55.941Z,96808.56
2023-05-24T05:55:00.408Z,96799.91
2023-05-24T05:56:03.725Z,96804.91
2023-05-24T05:57:08.248Z,96802.56
2023-05-24T05:58:12.013Z,96808.81
2023-05-24T05:59:16.709Z,96809.03
2023-05-24T06:00:21.528Z,96811.69
2023-05-24T06:01:25.139Z,96810.63
2023-05-24T06:02:28.658Z,96801.41
2023-05-24T06:03:32.218Z,96804.19
2023-05-24T06:04:34.851Z,96807.44
2023-05-24T06:05:38.826Z,96806.69
2023-05-24T06:06:41.547Z,96808.47
2023-05-24T06:07:45.869Z,96802.59
2023-05-24T06:08:49.184Z,96806.94
2023-05-24T06:09:52.463Z,96800.63
2023-05-24T06:10:56.310Z,96802.38
2023-05-24T06:11:59.550Z,96801.75
2023-05-24T06:13:03.398Z,96800.88
2023-05-24T06:14:07.155Z,96808.31
2023-05-24T06:15:12.238Z,96803.44
2023-05-24T06:16:15.306Z,96807.22
2023-05-24T06:17:18.670Z,96809.41
2023-05-24T06:18:21.137Z,96810.72
2023-05-24T06:19:25.068Z,96808.41
2023-05-24T06:20:27.781Z,96806.50
2023-05-24T06:21:32.282Z,96811.81
2023-05-24T06:22:36.634Z,96815.75
2023-05-24T06:23:39.922Z,96817.31
2023-05-24T06:24:43.906Z,96817.66
2023-05-24T06:25:47.250Z,96819.13
2023-05-24T06:26:53.385Z,96822.31
2023-05-24T06:27:55.973Z,96819.63
2023-05-24T06:28:59.431Z,96828.63
2023-05-24T06:30:01.883Z,96828.22
2023-05-24T06:31:05.735Z,96826.84
2023-05-24T06:32:08.832Z,96828.06
2023-05-24T06:33:12.148Z,96834.88
2023-05-24T06:34:17.094Z,96826.94
2023-05-24T06:35:20.449Z,96823.41
2023-05-24T06:36:22.888Z,96826.47
2023-05-24T06:37:27.037Z,96821.44
2023-05-24T06:38:29.447Z,96813.59
2023-05-24T06:39:32.984Z,96811.38
2023-05-24T06:40:36.296Z,96811.81
2023-05-24T06:41:39.158Z,96810.44
2023-05-24T06:42:44.446Z,96812.13
2023-05-24T06:43:46.826Z,96812.47
2023-05-24T06:44:50.145Z,96817.63
2023-05-24T06:45:52.551Z,96806.69
2023-05-24T06:46:56.266Z,96812.94
2023-05-24T06:47:59.731Z,96818.09
2023-05-24T06:49:03.350Z,96811.47
2023-05-24T06:50:07.204Z,96810.31
2023-05-24T06:51:10.841Z,96816.91
2023-05-24T06:52:13.857Z,96811.03
2023-05-24T06:53:18.503Z,96815.31
2023-05-24T06:54:22.353Z,96814.69
2023-05-24T06:55:24.785Z,96819.63
2023-05-24T06:56:29.031Z,96816.78
2023-05-24T06:57:31.813Z,96824.81
2023-05-24T06:58:38.666Z,96819.41
2023-05-24T06:59:41.066Z,96828.84
2023-05-24T07:00:46.102Z,96823.28
2023-05-24T07:01:51.759Z,96829.06
2023-05-24T07:02:56.544Z,96829.16
2023-05-24T07:04:00.000Z,96827.25
2023-05-24T07:05:02.487Z,96830.59
2023-05-24T07:06:06.690Z,96827.00
2023-05-24T07:07:13.220Z,96824.19
2023-05-24T07:08:16.778Z,96828.81
2023-05-24T07:09:20.454Z,96833.31
2023-05-24T07:10:23.876Z,96828.94
2023-05-24T07:11:27.586Z,96829.53
2023-05-24T07:12:32.525Z,96834.78
2023-05-24T07:13:36.303Z,96826.34
2023-05-24T07:14:39.775Z,96830.16
2023-05-24T07:15:43.695Z,96824.94
2023-05-24T07:16:46.836Z,96826.09
2023-05-24T07:17:50.484Z,96826.50
2023-05-24T07:18:52.938Z,96822.50
2023-05-24T07:19:57.489Z,96829.09
2023-05-24T07:21:01.277Z,96834.94
2023-05-24T07:22:03.824Z,96831.97
2023-05-24T07:23:07.948Z,96828.16
2023-05-24T07:24:10.379Z,96831.06
2023-05-24T07:25:14.542Z,96834.66
2023-05-24T07:26:17.214Z,96831.94
2023-05-24T07:27:20.690Z,96836.66
2023-05-24T07:28:23.025Z,96828.38
2023-05-24T07:29:27.751Z,96827.63
2023-05-24T07:30:32.785Z,96824.47
2023-05-24T07:31:37.022Z,96827.22
2023-05-24T07:32:40.535Z,96826.84
2023-05-24T07:33:43.086Z,96827.63
2023-05-24T07:34:46.500Z,96827.25
2023-05-24T07:35:52.370Z,96823.38
2023-05-24T07:36:54.820Z,96823.88
2023-05-24T07:37:58.255Z,96823.63
2023-05-24T07:39:02.259Z,96820.53
2023-05-24T07:40:11.230Z,96830.84
2023-05-24T07:41:15.985Z,96819.50
2023-05-24T07:42:19.448Z,96817.19
2023-05-24T07:43:21.926Z,96819.63
2023-05-24T07:44:25.842Z,96817.28
2023-05-24T07:45:29.615Z,96818.91
2023-05-24T07:46:34.108Z,96817.34
2023-05-24T07:47:37.288Z,96815.00
2023-05-24T07:48:41.010Z,96815.00
2023-05-24T07:49:43.543Z,96821.38
2023-05-24T07:50:48.850Z,96814.25
2023-05-24T07:52:00.360Z,96813.84
2023-05-24T07:53:05.349Z,96809.47
2023-05-24T07:54:07.915Z,96820.13
2023-05-24T07:55:11.712Z,96823.25
2023-05-24T07:56:14.150Z,96816.06
2023-05-24T07:57:18.512Z,96813.25
2023-05-24T07:58:20.976Z,96817.91
2023-05-24T07:59:24.502Z,96809.53
2023-05-24T08:00:27.058Z,96809.84
2023-05-24T08:01:32.268Z,96812.97
2023-05-24T08:02:35.466Z,96807.50
2023-05-24T08:03:39.554Z,96814.19
2023-05-24T08:04:42.127Z,96813.38
2023-05-24T08:05:45.887Z,96821.25
2023-05-24T08:06:49.490Z,96807.44
2023-05-24T08:07:53.703Z,96814.78
2023-05-24T08:08:56.536Z,96819.75
2023-05-24T08:10:00.194Z,96818.97
2023-05-24T08:11:02.851Z,96817.25
2023-05-24T08:12:07.556Z,96809.91
2023-05-24T08:13:10.263Z,96806.34
2023-05-24T08:14:13.763Z,96816.19
2023-05-24T08:15:17.203Z,96813.28
2023-05-24T08:16:19.885Z,96808.84
2023-05-24T08:17:25.086Z,96813.94
2023-05-24T08:18:28.446Z,96800.81
2023-05-24T08:19:35.859Z,96809.09
2023-05-24T08:20:40.903Z,96809.81
2023-05-24T08:21:44.532Z,96810.38
2023-05-24T08:22:48.529Z,96809.56
2023-05-24T08:23:52.984Z,96809.44
2023-05-24T08:24:56.376Z,96809.88
2023-05-24T08:25:59.955Z,96810.28
2023-05-24T08:27:04.459Z,96807.78
2023-05-24T08:28:08.826Z,96808.44
2023-05-24T08:29:12.552Z,96802.72
2023-05-24T08:30:16.170Z,96803.69
2023-05-24T08:31:19.745Z,96803.94
2023-05-24T08:32:23.952Z,96802.94
2023-05-24T08:33:27.418Z,96803.88
2023-05-24T08:34:29.831Z,96808.97
2023-05-24T08:35:33.276Z,96805.75
2023-05-24T08:36:37.561Z,96798.88
2023-05-24T08:37:40.100Z,96795.88
2023-05-24T08:38:43.853Z,96802.03
2023-05-24T08:39:48.316Z,96801.34
2023-05-24T08:40:51.773Z,96800.16
2023-05-24T08:42:07.774Z,96794.50
2023-05-24T08:43:12.995Z,96799.47
2023-05-24T08:44:15.885Z,96803.22
2023-05-24T08:45:21.653Z,96796.75
2023-05-24T08:46:25.876Z,96796.59
2023-05-24T08:47:31.282Z,96802.34
2023-05-24T08:48:38.705Z,96796.19
2023-05-24T08:49:41.964Z,96795.28
2023-05-24T08:50:47.261Z,96796.31
2023-05-24T08:51:51.472Z,96799.75
2023-05-24T08:52:55.437Z,96802.03
2023-05-24T08:54:00.576Z,96796.28
2023-05-24T08:55:05.483Z,96797.13
2023-05-24T08:56:11.123Z,96800.22
2023-05-24T08:57:16.721Z,96806.06
2023-05-24T08:58:20.556Z,96810.69
2023-05-24T08:59:26.830Z,96802.97
2023-05-24T09:00:30.317Z,96799.19
2023-05-24T09:01:34.715Z,96802.97
2023-05-24T09:02:43.802Z,96799.66
2023-05-24T09:03:49.018Z,96798.72
2023-05-24T09:05:02.392Z,96793.94
2023-05-24T09:06:06.521Z,96789.63
2023-05-24T09:07:10.329Z,96795.03
2023-05-24T09:08:18.148Z,96792.66
2023-05-24T09:09:22.398Z,96794.13
2023-05-24T09:10:26.920Z,96789.59
2023-05-24T09:11:33.820Z,96789.84
2023-05-24T09:12:39.316Z,96789.63
2023-05-24T09:13:43.905Z,96785.50
2023-05-24T09:14:47.512Z,96794.06
2023-05-24T09:15:51.358Z,96788.41
2023-05-24T09:16:55.726Z,96789.41
2023-05-24T09:18:00.315Z,96785.66
2023-05-24T09:19:04.297Z,96791.59
2023-05-24T09:20:11.215Z,96797.00
2023-05-24T09:21:15.274Z,96782.34
2023-05-24T09:22:20.263Z,96793.69
2023-05-24T09:23:25.643Z,96792.50
2023-05-24T09:24:29.097Z,96793.69
2023-05-24T09:25:31.659Z,96791.31
2023-05-24T09:26:37.717Z,96795.25
2023-05-24T09:27:40.396Z,96785.78
2023-05-24T09:28:44.427Z,96787.34
2023-05-24T09:29:49.186Z,96790.50
2023-05-24T09:31:06.263Z,96785.75
2023-05-24T09:32:10.403Z,96787.75
2023-05-24T09:33:15.220Z,96788.13
2023-05-24T09:34:17.765Z,96784.56
2023-05-24T09:35:23.475Z,96787.75
2023-05-24T09:36:30.103Z,96784.94
2023-05-24T09:37:34.157Z,96786.81
2023-05-24T09:38:37.768Z,96788.22
2023-05-24T09:39:42.436Z,96787.94
2023-05-24T09:40:46.137Z,96785.69
2023-05-24T09:41:57.358Z,96782.19
2023-05-24T09:43:05.903Z,96781.88
2023-05-24T09:44:09.257Z,96783.25
2023-05-24T09:45:13.391Z,96779.97
2023-05-24T09:46:19.201Z,96774.38
2023-05-24T09:47:22.722Z,96780.91
2023-05-24T09:48:27.771Z,96776.38
2023-05-24T09:49:30.259Z,96779.63
2023-05-24T09:50:34.273Z,96780.59
2023-05-24T09:51:39.525Z,96779.66
2023-05-24T09:52:42.766Z,96782.84
2023-05-24T09:53:47.090Z,96778.94
2023-05-24T09:54:50.249Z,96783.31
2023-05-24T09:55:57.024Z,96775.09
2023-05-24T09:57:05.166Z,96784.22
2023-05-24T09:58:09.328Z,96775.91
2023-05-24T09:59:12.975Z,96783.75
2023-05-24T10:00:22.402Z,96780.16
2023-05-24T10:01:29.319Z,96778.81
2023-05-24T10:02:41.588Z,96776.97
2023-05-24T10:03:58.455Z,96775.78
2023-05-24T10:05:01.853Z,96775.47
2023-05-24T10:06:08.778Z,96784.56
2023-05-24T10:07:12.945Z,96781.50
2023-05-24T10:08:18.455Z,96782.38
2023-05-24T10:09:22.682Z,96774.59
2023-05-24T10:10:29.727Z,96772.31
2023-05-24T10:11:33.233Z,96773.97
2023-05-24T10:12:43.047Z,96768.94
2023-05-24T10:13:47.337Z,96771.41
2023-05-24T10:14:53.694Z,96765.66
2023-05-24T10:15:56.917Z,96765.41
2023-05-24T10:17:00.411Z,96764.38
2023-05-24T10:18:10.579Z,96764.88
2023-05-24T10:19:17.051Z,96764.09
2023-05-24T10:20:19.933Z,96765.44
2023-05-24T10:21:26.063Z,96763.22
2023-05-24T10:22:29.333Z,96759.16
2023-05-24T10:23:33.765Z,96757.50
2023-05-24T10:24:42.174Z,96761.53
2023-05-24T10:25:53.974Z,96763.28
2023-05-24T10:26:59.166Z,96760.78
2023-05-24T10:28:04.947Z,96752.03
2023-05-24T10:29:12.724Z,96755.03
2023-05-24T10:30:22.249Z,96750.28
2023-05-24T10:31:29.664Z,96750.97
2023-05-24T10:32:35.267Z,96752.00
2023-05-24T10:33:40.189Z,96755.44
2023-05-24T10:34:44.767Z,96746.00
2023-05-24T10:35:48.629Z,96743.59
2023-05-24T10:36:52.967Z,96749.06
2023-05-24T10:37:55.778Z,96742.81
2023-05-24T10:39:00.076Z,96745.91
2023-05-24T10:40:02.759Z,96752.94
2023-05-24T10:41:08.215Z,96744.75
2023-05-24T10:42:11.407Z,96743.16
2023-05-24T10:43:14.918Z,96753.31
2023-05-24T10:44:21.247Z,96750.22
2023-05-24T10:45:39.315Z,96738.72
2023-05-24T10:47:09.298Z,96739.78
2023-05-24T10:48:36.352Z,96738.41
2023-05-24T10:49:40.705Z,96732.94
2023-05-24T10:50:45.380Z,96730.56
2023-05-24T10:51:49.037Z,96729.31
2023-05-24T10:52:52.651Z,96732.41
2023-05-24T10:53:57.962Z,96728.06
2023-05-24T10:55:05.738Z,96731.25
2023-05-24T10:56:10.382Z,96728.97
2023-05-24T10:57:13.946Z,96726.59
2023-05-24T10:58:20.079Z,96732.84
2023-05-24T10:59:25.503Z,96730.47
2023-05-24T11:00:35.359Z,96730.69
2023-05-24T11:01:39.386Z,96724.69
2023-05-24T11:02:42.791Z,96724.16
2023-05-24T11:03:45.308Z,96717.78
2023-05-24T11:04:49.557Z,96716.06
2023-05-24T11:05:55.424Z,96716.66
2023-05-24T11:07:04.506Z,96716.91
2023-05-24T11:08:09.757Z,96717.03
2023-05-24T11:09:12.238Z,96710.56
2023-05-24T11:10:16.816Z,96721.72
2023-05-24T11:12:35.278Z,96707.41
2023-05-24T11:13:38.730Z,96711.97
2023-05-24T11:14:42.573Z,96714.59
2023-05-24T11:15:52.294Z,96715.63
2023-05-24T11:16:55.364Z,96721.78
2023-05-24T11:18:18.492Z,96716.78
2023-05-24T11:19:23.555Z,96718.25
2023-05-24T11:20:27.427Z,96718.13
2023-05-24T11:21:32.375Z,96719.94
2023-05-24T11:22:36.250Z,96717.44
2023-05-24T11:23:39.484Z,96720.06
2023-05-24T11:24:43.529Z,96726.09
2023-05-24T11:25:47.640Z,96728.56
2023-05-24T11:26:52.847Z,96726.53
2023-05-24T11:27:57.463Z,96724.69
2023-05-24T11:29:05.039Z,96718.97
2023-05-24T11:30:12.593Z,96725.00
2023-05-24T11:31:15.268Z,96728.72
2023-05-24T11:32:20.617Z,96718.81
2023-05-24T11:33:24.573Z,96727.25
2023-05-24T11:34:28.833Z,96726.63
2023-05-24T11:35:32.290Z,96728.66
2023-05-24T11:36:36.653Z,96718.53
2023-05-24T11:38:49.066Z,96720.19
2023-05-24T11:39:54.195Z,96716.97
2023-05-24T11:40:59.575Z,96712.91
2023-05-24T11:42:06.690Z,96715.22
2023-05-24T11:43:09.107Z,96721.84
2023-05-24T11:44:13.718Z,96715.00
2023-05-24T11:45:19.854Z,96725.16
2023-05-24T11:46:23.100Z,96728.69
2023-05-24T11:47:27.127Z,96734.34
2023-05-24T11:48:30.677Z,96735.66
2023-05-24T11:49:35.508Z,96729.63
2023-05-24T11:50:49.147Z,96725.81
2023-05-24T11:51:56.185Z,96725.38
2023-05-24T11:53:03.267Z,96723.66
2023-05-24T11:54:06.789Z,96712.28
2023-05-24T11:55:17.297Z,96710.22
2023-05-24T11:56:21.851Z,96709.09
2023-05-24T11:57:31.691Z,96702.50
2023-05-24T11:58:46.020Z,96702.50
2023-05-24T11:59:49.742Z,96701.41
2023-05-24T12:00:52.984Z,96700.75
2023-05-24T12:02:00.903Z,96698.16
2023-05-24T12:03:08.471Z,96706.94
2023-05-24T12:04:13.030Z,96700.19
2023-05-24T12:05:19.585Z,96696.63
2023-05-24T12:06:23.212Z,96699.63
2023-05-24T12:07:28.859Z,96693.81
2023-05-24T12:08:31.531Z,96688.94
2023-05-24T12:09:35.202Z,96689.09
2023-05-24T12:10:39.766Z,96686.81
2023-05-24T12:11:44.670Z,96681.38
2023-05-24T12:12:47.424Z,96684.09
2023-05-24T12:13:51.062Z,96685.25
2023-05-24T12:14:56.956Z,96688.63
2023-05-24T12:16:00.843Z,96689.75
2023-05-24T12:17:04.488Z,96683.38
2023-05-24T12:18:19.117Z,96678.59
2023-05-24T12:19:32.909Z,96675.84
2023-05-24T12:20:39.376Z,96671.88
2023-05-24T12:21:42.312Z,96679.25
2023-05-24T12:22:51.852Z,96668.34
2023-05-24T12:23:54.287Z,96668.34
2023-05-24T12:24:59.205Z,96655.88
2023-05-24T12:26:02.278Z,96662.91
2023-05-24T12:27:07.996Z,96662.13
2023-05-24T12:28:11.996Z,96656.66
2023-05-24T12:29:15.155Z,96655.19
2023-05-24T12:30:21.457Z,96653.63
2023-05-24T12:31:24.901Z,96649.75
2023-05-24T12:32:27.420Z,96647.53
2023-05-24T12:33:32.133Z,96653.75
2023-05-24T12:34:35.875Z,96649.56
2023-05-24T12:35:41.845Z,96650.69
2023-05-24T12:36:45.460Z,96644.44
2023-05-24T12:37:50.155Z,96648.78
2023-05-24T12:38:54.288Z,96645.59
2023-05-24T12:39:57.712Z,96640.16
2023-05-24T12:41:12.309Z,96636.63
2023-05-24T12:42:17.248Z,96635.03
2023-05-24T12:43:20.371Z,96637.44
2023-05-24T12:44:26.421Z,96634.38
2023-05-24T12:45:30.186Z,96628.91
2023-05-24T12:46:32.594Z,96634.38